sensor_id;sensor_type;location;lat;lon;timestamp;P1;durP1;ratioP1;P2;durP2;ratioP2
17993;SDS011;9122;48.406;9.984;2023-07-29T00:01:24;3.05;;;2.85;;
17993;SDS011;9122;48.406;9.984;2023-07-29T00:04:09;3.15;;;2.92;;
17993;SDS011;9122;48.406;9.984;2023-07-29T00:06:55;4.93;;;2.97;;
17993;SDS011;9122;48.406;9.984;2023-07-29T00:09:39;4.28;;;3.15;;
17993;SDS011;9122;48.406;9.984;2023-07-29T00:12:24;6.32;;;3.45;;
17993;SDS011;9122;48.406;9.984;2023-07-29T00:15:08;2.70;;;2.50;;
17993;SDS011;9122;48.406;9.984;2023-07-29T00:17:54;4.97;;;3.50;;
17993;SDS011;9122;48.406;9.984;2023-07-29T00:20:38;3.75;;;3.35;;
17993;SDS011;9122;48.406;9.984;2023-07-29T00:23:25;3.33;;;3.03;;
17993;SDS011;9122;48.406;9.984;2023-07-29T00:26:09;3.45;;;3.17;;
17993;SDS011;9122;48.406;9.984;2023-07-29T00:28:55;5.45;;;3.70;;
17993;SDS011;9122;48.406;9.984;2023-07-29T00:31:40;3.80;;;3.30;;
17993;SDS011;9122;48.406;9.984;2023-07-29T00:34:24;3.60;;;3.30;;
17993;SDS011;9122;48.406;9.984;2023-07-29T00:37:08;4.82;;;2.83;;
17993;SDS011;9122;48.406;9.984;2023-07-29T00:39:54;4.03;;;3.40;;
17993;SDS011;9122;48.406;9.984;2023-07-29T00:42:39;4.38;;;3.63;;
17993;SDS011;9122;48.406;9.984;2023-07-29T00:45:24;3.28;;;2.97;;
17993;SDS011;9122;48.406;9.984;2023-07-29T00:48:09;3.60;;;3.33;;
17993;SDS011;9122;48.406;9.984;2023-07-29T00:50:54;3.73;;;3.43;;
17993;SDS011;9122;48.406;9.984;2023-07-29T00:53:39;3.45;;;3.15;;
17993;SDS011;9122;48.406;9.984;2023-07-29T00:56:23;5.55;;;3.58;;
17993;SDS011;9122;48.406;9.984;2023-07-29T00:59:08;8.18;;;3.80;;
17993;SDS011;9122;48.406;9.984;2023-07-29T01:01:52;3.70;;;3.40;;
17993;SDS011;9122;48.406;9.984;2023-07-29T01:04:37;3.90;;;3.47;;
17993;SDS011;9122;48.406;9.984;2023-07-29T01:07:23;3.87;;;3.57;;
17993;SDS011;9122;48.406;9.984;2023-07-29T01:10:43;3.50;;;3.20;;
17993;SDS011;9122;48.406;9.984;2023-07-29T01:13:33;4.93;;;4.00;;
17993;SDS011;9122;48.406;9.984;2023-07-29T01:16:25;9.73;;;3.87;;
17993;SDS011;9122;48.406;9.984;2023-07-29T01:20:00;3.92;;;3.63;;
17993;SDS011;9122;48.406;9.984;2023-07-29T01:22:49;3.20;;;2.95;;
17993;SDS011;9122;48.406;9.984;2023-07-29T01:25:34;3.93;;;3.13;;
17993;SDS011;9122;48.406;9.984;2023-07-29T01:28:18;5.88;;;3.38;;
17993;SDS011;9122;48.406;9.984;2023-07-29T01:31:07;3.97;;;3.33;;
17993;SDS011;9122;48.406;9.984;2023-07-29T01:34:41;3.50;;;3.10;;
17993;SDS011;9122;48.406;9.984;2023-07-29T01:37:09;4.17;;;3.33;;
17993;SDS011;9122;48.406;9.984;2023-07-29T01:39:59;5.35;;;4.50;;
17993;SDS011;9122;48.406;9.984;2023-07-29T01:42:45;3.73;;;3.40;;
17993;SDS011;9122;48.406;9.984;2023-07-29T01:45:30;4.17;;;3.83;;
17993;SDS011;9122;48.406;9.984;2023-07-29T01:48:19;4.83;;;3.73;;
17993;SDS011;9122;48.406;9.984;2023-07-29T01:51:03;3.33;;;3.13;;
17993;SDS011;9122;48.406;9.984;2023-07-29T01:53:48;4.60;;;3.50;;
17993;SDS011;9122;48.406;9.984;2023-07-29T01:56:33;4.50;;;3.00;;
17993;SDS011;9122;48.406;9.984;2023-07-29T01:59:17;4.05;;;3.75;;
17993;SDS011;9122;48.406;9.984;2023-07-29T02:02:01;3.70;;;3.40;;
17993;SDS011;9122;48.406;9.984;2023-07-29T02:04:46;3.92;;;3.63;;
17993;SDS011;9122;48.406;9.984;2023-07-29T02:07:35;3.10;;;2.90;;
17993;SDS011;9122;48.406;9.984;2023-07-29T02:10:20;3.13;;;2.93;;
17993;SDS011;9122;48.406;9.984;2023-07-29T02:13:04;4.20;;;2.70;;
17993;SDS011;9122;48.406;9.984;2023-07-29T02:15:48;4.10;;;3.22;;
17993;SDS011;9122;48.406;9.984;2023-07-29T02:18:32;5.75;;;3.28;;
17993;SDS011;9122;48.406;9.984;2023-07-29T02:21:16;4.90;;;3.63;;
17993;SDS011;9122;48.406;9.984;2023-07-29T02:24:01;5.70;;;3.70;;
17993;SDS011;9122;48.406;9.984;2023-07-29T02:26:45;3.53;;;3.17;;
17993;SDS011;9122;48.406;9.984;2023-07-29T02:29:29;3.77;;;3.47;;
17993;SDS011;9122;48.406;9.984;2023-07-29T02:32:14;4.33;;;3.70;;
17993;SDS011;9122;48.406;9.984;2023-07-29T02:34:58;3.70;;;3.40;;
17993;SDS011;9122;48.406;9.984;2023-07-29T02:37:42;5.47;;;3.90;;
17993;SDS011;9122;48.406;9.984;2023-07-29T02:40:27;3.80;;;3.50;;
17993;SDS011;9122;48.406;9.984;2023-07-29T02:43:13;6.20;;;3.60;;
17993;SDS011;9122;48.406;9.984;2023-07-29T02:45:57;4.30;;;3.90;;
17993;SDS011;9122;48.406;9.984;2023-07-29T02:48:44;4.07;;;3.67;;
17993;SDS011;9122;48.406;9.984;2023-07-29T02:51:29;4.43;;;4.03;;
17993;SDS011;9122;48.406;9.984;2023-07-29T02:54:14;4.40;;;3.57;;
17993;SDS011;9122;48.406;9.984;2023-07-29T02:56:59;4.87;;;3.80;;
17993;SDS011;9122;48.406;9.984;2023-07-29T02:59:44;5.00;;;3.50;;
17993;SDS011;9122;48.406;9.984;2023-07-29T03:02:28;4.53;;;4.13;;
17993;SDS011;9122;48.406;9.984;2023-07-29T03:05:12;4.70;;;3.60;;
17993;SDS011;9122;48.406;9.984;2023-07-29T03:07:57;4.20;;;3.80;;
17993;SDS011;9122;48.406;9.984;2023-07-29T03:10:41;5.03;;;4.63;;
17993;SDS011;9122;48.406;9.984;2023-07-29T03:13:25;4.43;;;4.03;;
17993;SDS011;9122;48.406;9.984;2023-07-29T03:16:11;5.23;;;4.73;;
17993;SDS011;9122;48.406;9.984;2023-07-29T03:18:59;4.57;;;4.17;;
17993;SDS011;9122;48.406;9.984;2023-07-29T03:21:44;4.77;;;4.37;;
17993;SDS011;9122;48.406;9.984;2023-07-29T03:24:29;4.83;;;4.43;;
17993;SDS011;9122;48.406;9.984;2023-07-29T03:27:13;5.13;;;3.93;;
17993;SDS011;9122;48.406;9.984;2023-07-29T03:29:59;5.33;;;4.83;;
17993;SDS011;9122;48.406;9.984;2023-07-29T03:32:44;5.60;;;4.70;;
17993;SDS011;9122;48.406;9.984;2023-07-29T03:35:29;4.63;;;4.23;;
17993;SDS011;9122;48.406;9.984;2023-07-29T03:38:13;5.00;;;4.40;;
17993;SDS011;9122;48.406;9.984;2023-07-29T03:40:57;5.93;;;5.33;;
17993;SDS011;9122;48.406;9.984;2023-07-29T03:43:42;5.67;;;4.97;;
17993;SDS011;9122;48.406;9.984;2023-07-29T03:46:27;5.13;;;4.73;;
17993;SDS011;9122;48.406;9.984;2023-07-29T03:49:11;5.63;;;5.23;;
17993;SDS011;9122;48.406;9.984;2023-07-29T03:51:56;5.93;;;5.43;;
17993;SDS011;9122;48.406;9.984;2023-07-29T03:54:40;5.93;;;5.43;;
17993;SDS011;9122;48.406;9.984;2023-07-29T03:57:24;5.77;;;5.27;;
17993;SDS011;9122;48.406;9.984;2023-07-29T04:00:08;5.87;;;5.37;;
17993;SDS011;9122;48.406;9.984;2023-07-29T04:02:53;6.37;;;5.87;;
17993;SDS011;9122;48.406;9.984;2023-07-29T04:05:37;5.70;;;5.30;;
17993;SDS011;9122;48.406;9.984;2023-07-29T04:08:22;5.87;;;5.37;;
17993;SDS011;9122;48.406;9.984;2023-07-29T04:11:06;5.17;;;4.67;;
17993;SDS011;9122;48.406;9.984;2023-07-29T04:13:51;5.70;;;5.10;;
17993;SDS011;9122;48.406;9.984;2023-07-29T04:16:35;5.77;;;5.27;;
17993;SDS011;9122;48.406;9.984;2023-07-29T04:19:20;5.40;;;5.00;;
17993;SDS011;9122;48.406;9.984;2023-07-29T04:22:04;6.37;;;5.77;;
17993;SDS011;9122;48.406;9.984;2023-07-29T04:24:49;6.27;;;5.67;;
17993;SDS011;9122;48.406;9.984;2023-07-29T04:27:33;6.57;;;5.70;;
17993;SDS011;9122;48.406;9.984;2023-07-29T04:30:17;6.40;;;5.80;;
17993;SDS011;9122;48.406;9.984;2023-07-29T04:33:02;6.47;;;5.87;;
17993;SDS011;9122;48.406;9.984;2023-07-29T04:35:47;6.30;;;5.80;;
17993;SDS011;9122;48.406;9.984;2023-07-29T04:38:32;5.77;;;5.27;;
17993;SDS011;9122;48.406;9.984;2023-07-29T04:41:16;7.67;;;5.43;;
17993;SDS011;9122;48.406;9.984;2023-07-29T04:44:01;6.70;;;5.23;;
17993;SDS011;9122;48.406;9.984;2023-07-29T04:46:46;6.27;;;5.37;;
17993;SDS011;9122;48.406;9.984;2023-07-29T04:49:30;6.00;;;5.50;;
17993;SDS011;9122;48.406;9.984;2023-07-29T04:52:14;6.57;;;5.97;;
17993;SDS011;9122;48.406;9.984;2023-07-29T04:54:58;6.33;;;5.57;;
17993;SDS011;9122;48.406;9.984;2023-07-29T04:57:43;5.53;;;5.03;;
17993;SDS011;9122;48.406;9.984;2023-07-29T05:00:27;5.97;;;5.47;;
17993;SDS011;9122;48.406;9.984;2023-07-29T05:03:11;5.83;;;5.37;;
17993;SDS011;9122;48.406;9.984;2023-07-29T05:05:56;5.93;;;5.40;;
17993;SDS011;9122;48.406;9.984;2023-07-29T05:08:42;6.33;;;5.70;;
17993;SDS011;9122;48.406;9.984;2023-07-29T05:11:26;6.33;;;5.73;;
17993;SDS011;9122;48.406;9.984;2023-07-29T05:14:11;6.30;;;5.70;;
17993;SDS011;9122;48.406;9.984;2023-07-29T05:16:56;5.43;;;4.93;;
17993;SDS011;9122;48.406;9.984;2023-07-29T05:19:40;6.30;;;5.70;;
17993;SDS011;9122;48.406;9.984;2023-07-29T05:22:25;7.30;;;6.23;;
17993;SDS011;9122;48.406;9.984;2023-07-29T05:25:09;8.23;;;5.70;;
17993;SDS011;9122;48.406;9.984;2023-07-29T05:27:53;6.03;;;5.53;;
17993;SDS011;9122;48.406;9.984;2023-07-29T05:30:37;6.43;;;5.80;;
17993;SDS011;9122;48.406;9.984;2023-07-29T05:33:23;6.00;;;5.40;;
17993;SDS011;9122;48.406;9.984;2023-07-29T05:36:08;5.50;;;5.10;;
17993;SDS011;9122;48.406;9.984;2023-07-29T05:38:53;6.57;;;5.63;;
17993;SDS011;9122;48.406;9.984;2023-07-29T05:41:37;6.30;;;4.97;;
17993;SDS011;9122;48.406;9.984;2023-07-29T05:44:21;5.60;;;5.10;;
17993;SDS011;9122;48.406;9.984;2023-07-29T05:47:06;5.83;;;5.37;;
17993;SDS011;9122;48.406;9.984;2023-07-29T05:49:50;6.10;;;5.03;;
17993;SDS011;9122;48.406;9.984;2023-07-29T05:52:35;5.07;;;4.67;;
17993;SDS011;9122;48.406;9.984;2023-07-29T05:55:20;5.60;;;5.00;;
17993;SDS011;9122;48.406;9.984;2023-07-29T05:58:05;7.27;;;5.90;;
17993;SDS011;9122;48.406;9.984;2023-07-29T06:00:49;8.55;;;5.45;;
17993;SDS011;9122;48.406;9.984;2023-07-29T06:03:34;6.13;;;5.60;;
17993;SDS011;9122;48.406;9.984;2023-07-29T06:06:18;6.77;;;6.23;;
17993;SDS011;9122;48.406;9.984;2023-07-29T06:09:03;6.03;;;5.53;;
17993;SDS011;9122;48.406;9.984;2023-07-29T06:11:48;8.43;;;6.20;;
17993;SDS011;9122;48.406;9.984;2023-07-29T06:14:32;6.35;;;5.53;;
17993;SDS011;9122;48.406;9.984;2023-07-29T06:17:16;7.20;;;5.67;;
17993;SDS011;9122;48.406;9.984;2023-07-29T06:20:00;6.07;;;5.50;;
17993;SDS011;9122;48.406;9.984;2023-07-29T06:22:45;6.80;;;5.57;;
17993;SDS011;9122;48.406;9.984;2023-07-29T06:25:29;5.60;;;5.07;;
17993;SDS011;9122;48.406;9.984;2023-07-29T06:28:14;5.95;;;5.43;;
17993;SDS011;9122;48.406;9.984;2023-07-29T06:30:58;5.60;;;5.10;;
17993;SDS011;9122;48.406;9.984;2023-07-29T06:33:42;4.78;;;4.38;;
17993;SDS011;9122;48.406;9.984;2023-07-29T06:36:26;4.53;;;4.20;;
17993;SDS011;9122;48.406;9.984;2023-07-29T06:39:10;5.25;;;4.85;;
17993;SDS011;9122;48.406;9.984;2023-07-29T06:41:55;3.93;;;3.63;;
17993;SDS011;9122;48.406;9.984;2023-07-29T06:44:40;4.50;;;4.10;;
17993;SDS011;9122;48.406;9.984;2023-07-29T06:47:24;4.13;;;3.72;;
17993;SDS011;9122;48.406;9.984;2023-07-29T06:50:08;4.43;;;3.67;;
17993;SDS011;9122;48.406;9.984;2023-07-29T06:52:53;4.72;;;3.90;;
17993;SDS011;9122;48.406;9.984;2023-07-29T06:55:37;4.78;;;4.18;;
17993;SDS011;9122;48.406;9.984;2023-07-29T06:58:22;4.43;;;4.05;;
17993;SDS011;9122;48.406;9.984;2023-07-29T07:01:07;7.95;;;4.40;;
17993;SDS011;9122;48.406;9.984;2023-07-29T07:03:53;4.63;;;4.20;;
17993;SDS011;9122;48.406;9.984;2023-07-29T07:06:38;4.10;;;3.70;;
17993;SDS011;9122;48.406;9.984;2023-07-29T07:09:22;4.80;;;3.60;;
17993;SDS011;9122;48.406;9.984;2023-07-29T07:12:07;4.55;;;4.20;;
17993;SDS011;9122;48.406;9.984;2023-07-29T07:14:51;5.00;;;3.60;;
17993;SDS011;9122;48.406;9.984;2023-07-29T07:17:36;4.03;;;3.67;;
17993;SDS011;9122;48.406;9.984;2023-07-29T07:20:20;4.28;;;3.97;;
17993;SDS011;9122;48.406;9.984;2023-07-29T07:23:05;8.50;;;4.25;;
17993;SDS011;9122;48.406;9.984;2023-07-29T07:25:52;4.38;;;3.97;;
17993;SDS011;9122;48.406;9.984;2023-07-29T07:28:36;4.05;;;3.72;;
17993;SDS011;9122;48.406;9.984;2023-07-29T07:31:20;3.40;;;3.20;;
17993;SDS011;9122;48.406;9.984;2023-07-29T07:34:04;3.90;;;3.60;;
17993;SDS011;9122;48.406;9.984;2023-07-29T07:36:49;6.93;;;3.67;;
17993;SDS011;9122;48.406;9.984;2023-07-29T07:39:33;3.65;;;3.45;;
17993;SDS011;9122;48.406;9.984;2023-07-29T07:42:17;3.95;;;3.47;;
17993;SDS011;9122;48.406;9.984;2023-07-29T07:45:02;4.05;;;3.65;;
17993;SDS011;9122;48.406;9.984;2023-07-29T07:47:46;4.13;;;3.72;;
17993;SDS011;9122;48.406;9.984;2023-07-29T07:50:31;4.00;;;3.70;;
17993;SDS011;9122;48.406;9.984;2023-07-29T07:53:15;4.07;;;3.03;;
17993;SDS011;9122;48.406;9.984;2023-07-29T07:56:00;4.47;;;4.15;;
17993;SDS011;9122;48.406;9.984;2023-07-29T07:58:44;3.97;;;3.40;;
17993;SDS011;9122;48.406;9.984;2023-07-29T08:01:33;3.95;;;3.65;;
17993;SDS011;9122;48.406;9.984;2023-07-29T08:04:19;4.20;;;3.90;;
17993;SDS011;9122;48.406;9.984;2023-07-29T08:07:03;8.25;;;4.20;;
17993;SDS011;9122;48.406;9.984;2023-07-29T08:09:48;3.45;;;3.25;;
17993;SDS011;9122;48.406;9.984;2023-07-29T08:12:34;3.30;;;3.00;;
17993;SDS011;9122;48.406;9.984;2023-07-29T08:15:18;4.22;;;3.92;;
17993;SDS011;9122;48.406;9.984;2023-07-29T08:18:03;4.10;;;3.70;;
17993;SDS011;9122;48.406;9.984;2023-07-29T08:20:51;4.57;;;4.20;;
17993;SDS011;9122;48.406;9.984;2023-07-29T08:23:41;4.60;;;3.85;;
17993;SDS011;9122;48.406;9.984;2023-07-29T08:26:26;6.45;;;3.72;;
17993;SDS011;9122;48.406;9.984;2023-07-29T08:29:10;3.72;;;3.42;;
17993;SDS011;9122;48.406;9.984;2023-07-29T08:31:54;3.80;;;3.50;;
17993;SDS011;9122;48.406;9.984;2023-07-29T08:34:39;3.88;;;3.58;;
17993;SDS011;9122;48.406;9.984;2023-07-29T08:37:23;3.72;;;3.47;;
17993;SDS011;9122;48.406;9.984;2023-07-29T08:40:08;4.50;;;3.65;;
17993;SDS011;9122;48.406;9.984;2023-07-29T08:42:52;3.92;;;3.63;;
17993;SDS011;9122;48.406;9.984;2023-07-29T08:45:40;3.90;;;3.60;;
17993;SDS011;9122;48.406;9.984;2023-07-29T08:48:32;3.67;;;3.42;;
17993;SDS011;9122;48.406;9.984;2023-07-29T08:51:23;4.82;;;4.00;;
17993;SDS011;9122;48.406;9.984;2023-07-29T08:54:09;4.63;;;4.32;;
17993;SDS011;9122;48.406;9.984;2023-07-29T08:56:54;4.03;;;3.65;;
17993;SDS011;9122;48.406;9.984;2023-07-29T08:59:38;4.50;;;4.20;;
17993;SDS011;9122;48.406;9.984;2023-07-29T09:02:23;4.30;;;4.00;;
17993;SDS011;9122;48.406;9.984;2023-07-29T09:05:07;4.85;;;4.55;;
17993;SDS011;9122;48.406;9.984;2023-07-29T09:07:52;4.25;;;3.95;;
17993;SDS011;9122;48.406;9.984;2023-07-29T09:10:39;5.25;;;3.65;;
17993;SDS011;9122;48.406;9.984;2023-07-29T09:13:24;7.93;;;4.38;;
17993;SDS011;9122;48.406;9.984;2023-07-29T09:16:09;4.15;;;3.85;;
17993;SDS011;9122;48.406;9.984;2023-07-29T09:18:53;3.50;;;3.30;;
17993;SDS011;9122;48.406;9.984;2023-07-29T09:21:39;5.65;;;3.20;;
17993;SDS011;9122;48.406;9.984;2023-07-29T09:24:24;3.65;;;3.38;;
17993;SDS011;9122;48.406;9.984;2023-07-29T09:27:25;3.08;;;2.70;;
17993;SDS011;9122;48.406;9.984;2023-07-29T09:30:17;2.97;;;2.78;;
17993;SDS011;9122;48.406;9.984;2023-07-29T09:33:01;2.97;;;2.78;;
17993;SDS011;9122;48.406;9.984;2023-07-29T09:35:46;3.55;;;3.08;;
17993;SDS011;9122;48.406;9.984;2023-07-29T09:38:31;2.78;;;2.58;;
17993;SDS011;9122;48.406;9.984;2023-07-29T09:41:15;1.95;;;1.85;;
17993;SDS011;9122;48.406;9.984;2023-07-29T09:44:00;2.95;;;2.75;;
17993;SDS011;9122;48.406;9.984;2023-07-29T09:46:46;2.70;;;2.35;;
17993;SDS011;9122;48.406;9.984;2023-07-29T09:49:34;2.25;;;2.08;;
17993;SDS011;9122;48.406;9.984;2023-07-29T09:52:21;2.72;;;2.40;;
17993;SDS011;9122;48.406;9.984;2023-07-29T09:55:06;2.67;;;2.47;;
17993;SDS011;9122;48.406;9.984;2023-07-29T09:57:58;3.03;;;2.83;;
17993;SDS011;9122;48.406;9.984;2023-07-29T10:00:46;2.80;;;2.60;;
17993;SDS011;9122;48.406;9.984;2023-07-29T10:03:30;2.83;;;2.63;;
17993;SDS011;9122;48.406;9.984;2023-07-29T10:06:15;2.97;;;2.75;;
17993;SDS011;9122;48.406;9.984;2023-07-29T10:09:01;3.83;;;3.50;;
17993;SDS011;9122;48.406;9.984;2023-07-29T10:11:45;4.22;;;2.80;;
17993;SDS011;9122;48.406;9.984;2023-07-29T10:14:31;2.63;;;2.50;;
17993;SDS011;9122;48.406;9.984;2023-07-29T10:17:16;3.33;;;3.08;;
17993;SDS011;9122;48.406;9.984;2023-07-29T10:20:04;3.05;;;2.55;;
17993;SDS011;9122;48.406;9.984;2023-07-29T10:22:50;2.92;;;2.65;;
17993;SDS011;9122;48.406;9.984;2023-07-29T10:25:39;2.58;;;2.38;;
17993;SDS011;9122;48.406;9.984;2023-07-29T10:28:30;2.33;;;2.22;;
17993;SDS011;9122;48.406;9.984;2023-07-29T10:31:15;2.88;;;2.72;;
17993;SDS011;9122;48.406;9.984;2023-07-29T10:34:04;2.90;;;2.70;;
17993;SDS011;9122;48.406;9.984;2023-07-29T10:36:49;2.78;;;2.58;;
17993;SDS011;9122;48.406;9.984;2023-07-29T10:39:37;2.50;;;2.30;;
17993;SDS011;9122;48.406;9.984;2023-07-29T10:42:26;2.60;;;2.40;;
17993;SDS011;9122;48.406;9.984;2023-07-29T10:45:18;2.65;;;2.45;;
17993;SDS011;9122;48.406;9.984;2023-07-29T10:48:08;2.78;;;2.58;;
17993;SDS011;9122;48.406;9.984;2023-07-29T10:54:18;3.08;;;2.75;;
17993;SDS011;9122;48.406;9.984;2023-07-29T10:57:02;3.30;;;3.00;;
17993;SDS011;9122;48.406;9.984;2023-07-29T10:59:54;4.43;;;3.10;;
17993;SDS011;9122;48.406;9.984;2023-07-29T11:02:39;2.95;;;2.72;;
17993;SDS011;9122;48.406;9.984;2023-07-29T11:05:23;3.35;;;3.05;;
17993;SDS011;9122;48.406;9.984;2023-07-29T11:11:14;3.13;;;2.92;;
17993;SDS011;9122;48.406;9.984;2023-07-29T11:14:00;3.10;;;2.78;;
17993;SDS011;9122;48.406;9.984;2023-07-29T11:16:45;3.05;;;2.83;;
17993;SDS011;9122;48.406;9.984;2023-07-29T11:19:30;3.55;;;2.45;;
17993;SDS011;9122;48.406;9.984;2023-07-29T11:22:15;2.75;;;2.55;;
17993;SDS011;9122;48.406;9.984;2023-07-29T11:25:00;2.67;;;2.47;;
17993;SDS011;9122;48.406;9.984;2023-07-29T11:27:45;2.55;;;2.35;;
17993;SDS011;9122;48.406;9.984;2023-07-29T11:30:30;2.10;;;2.00;;
17993;SDS011;9122;48.406;9.984;2023-07-29T11:33:16;2.53;;;2.35;;
17993;SDS011;9122;48.406;9.984;2023-07-29T11:36:02;2.40;;;2.20;;
17993;SDS011;9122;48.406;9.984;2023-07-29T11:38:46;2.20;;;2.10;;
17993;SDS011;9122;48.406;9.984;2023-07-29T11:41:33;2.47;;;2.30;;
17993;SDS011;9122;48.406;9.984;2023-07-29T11:44:18;4.55;;;2.30;;
17993;SDS011;9122;48.406;9.984;2023-07-29T11:47:05;1.90;;;1.80;;
17993;SDS011;9122;48.406;9.984;2023-07-29T11:49:53;3.95;;;2.25;;
17993;SDS011;9122;48.406;9.984;2023-07-29T11:52:38;2.10;;;2.00;;
17993;SDS011;9122;48.406;9.984;2023-07-29T11:55:24;1.80;;;1.70;;
17993;SDS011;9122;48.406;9.984;2023-07-29T11:58:10;2.10;;;1.90;;
17993;SDS011;9122;48.406;9.984;2023-07-29T12:00:55;2.20;;;2.10;;
17993;SDS011;9122;48.406;9.984;2023-07-29T12:03:40;2.22;;;2.10;;
17993;SDS011;9122;48.406;9.984;2023-07-29T12:06:24;2.22;;;2.10;;
17993;SDS011;9122;48.406;9.984;2023-07-29T12:09:09;1.95;;;1.80;;
17993;SDS011;9122;48.406;9.984;2023-07-29T12:11:54;3.22;;;2.17;;
17993;SDS011;9122;48.406;9.984;2023-07-29T12:14:42;2.78;;;2.03;;
17993;SDS011;9122;48.406;9.984;2023-07-29T12:17:30;2.85;;;2.38;;
17993;SDS011;9122;48.406;9.984;2023-07-29T12:20:14;2.38;;;2.17;;
17993;SDS011;9122;48.406;9.984;2023-07-29T12:22:59;1.95;;;1.85;;
17993;SDS011;9122;48.406;9.984;2023-07-29T12:25:48;2.47;;;2.28;;
17993;SDS011;9122;48.406;9.984;2023-07-29T12:28:33;2.30;;;2.13;;
17993;SDS011;9122;48.406;9.984;2023-07-29T12:31:17;1.90;;;1.80;;
17993;SDS011;9122;48.406;9.984;2023-07-29T12:34:01;2.00;;;1.90;;
17993;SDS011;9122;48.406;9.984;2023-07-29T12:36:46;3.47;;;2.10;;
17993;SDS011;9122;48.406;9.984;2023-07-29T12:39:32;2.78;;;2.08;;
17993;SDS011;9122;48.406;9.984;2023-07-29T12:42:18;4.03;;;2.13;;
17993;SDS011;9122;48.406;9.984;2023-07-29T12:45:02;2.28;;;2.17;;
17993;SDS011;9122;48.406;9.984;2023-07-29T12:47:47;2.53;;;2.33;;
17993;SDS011;9122;48.406;9.984;2023-07-29T12:50:31;2.30;;;2.10;;
17993;SDS011;9122;48.406;9.984;2023-07-29T12:53:16;2.20;;;2.00;;
17993;SDS011;9122;48.406;9.984;2023-07-29T12:56:01;2.10;;;1.90;;
17993;SDS011;9122;48.406;9.984;2023-07-29T12:58:46;2.22;;;2.13;;
17993;SDS011;9122;48.406;9.984;2023-07-29T13:01:30;1.95;;;1.85;;
17993;SDS011;9122;48.406;9.984;2023-07-29T13:04:15;2.75;;;2.20;;
17993;SDS011;9122;48.406;9.984;2023-07-29T13:06:59;2.25;;;2.05;;
17993;SDS011;9122;48.406;9.984;2023-07-29T13:09:43;2.38;;;1.88;;
17993;SDS011;9122;48.406;9.984;2023-07-29T13:12:27;1.88;;;1.73;;
17993;SDS011;9122;48.406;9.984;2023-07-29T13:15:12;1.88;;;1.77;;
17993;SDS011;9122;48.406;9.984;2023-07-29T13:17:56;2.88;;;2.15;;
17993;SDS011;9122;48.406;9.984;2023-07-29T13:20:40;2.20;;;1.80;;
17993;SDS011;9122;48.406;9.984;2023-07-29T13:23:24;2.00;;;1.90;;
17993;SDS011;9122;48.406;9.984;2023-07-29T13:26:08;1.70;;;1.50;;
17993;SDS011;9122;48.406;9.984;2023-07-29T13:28:53;1.90;;;1.80;;
17993;SDS011;9122;48.406;9.984;2023-07-29T13:31:38;1.95;;;1.85;;
17993;SDS011;9122;48.406;9.984;2023-07-29T13:34:22;1.80;;;1.70;;
17993;SDS011;9122;48.406;9.984;2023-07-29T13:37:07;1.88;;;1.77;;
17993;SDS011;9122;48.406;9.984;2023-07-29T13:39:52;1.77;;;1.67;;
17993;SDS011;9122;48.406;9.984;2023-07-29T13:42:36;2.00;;;1.90;;
17993;SDS011;9122;48.406;9.984;2023-07-29T13:45:20;1.80;;;1.70;;
17993;SDS011;9122;48.406;9.984;2023-07-29T13:48:04;2.10;;;2.00;;
17993;SDS011;9122;48.406;9.984;2023-07-29T13:50:48;1.80;;;1.70;;
17993;SDS011;9122;48.406;9.984;2023-07-29T13:53:33;1.77;;;1.67;;
17993;SDS011;9122;48.406;9.984;2023-07-29T13:56:17;2.28;;;2.03;;
17993;SDS011;9122;48.406;9.984;2023-07-29T13:59:02;1.90;;;1.80;;
17993;SDS011;9122;48.406;9.984;2023-07-29T14:01:46;1.92;;;1.83;;
17993;SDS011;9122;48.406;9.984;2023-07-29T14:04:30;1.65;;;1.55;;
17993;SDS011;9122;48.406;9.984;2023-07-29T14:07:16;2.08;;;1.90;;
17993;SDS011;9122;48.406;9.984;2023-07-29T14:10:00;2.67;;;1.95;;
17993;SDS011;9122;48.406;9.984;2023-07-29T14:12:45;1.85;;;1.75;;
17993;SDS011;9122;48.406;9.984;2023-07-29T14:15:30;2.30;;;2.03;;
17993;SDS011;9122;48.406;9.984;2023-07-29T14:18:16;1.98;;;1.88;;
17993;SDS011;9122;48.406;9.984;2023-07-29T14:21:00;2.03;;;1.80;;
17993;SDS011;9122;48.406;9.984;2023-07-29T14:23:44;2.20;;;2.00;;
17993;SDS011;9122;48.406;9.984;2023-07-29T14:26:28;1.92;;;1.83;;
17993;SDS011;9122;48.406;9.984;2023-07-29T14:29:13;1.73;;;1.63;;
17993;SDS011;9122;48.406;9.984;2023-07-29T14:31:57;1.98;;;1.88;;
17993;SDS011;9122;48.406;9.984;2023-07-29T14:34:41;1.83;;;1.73;;
17993;SDS011;9122;48.406;9.984;2023-07-29T14:37:28;2.55;;;1.60;;
17993;SDS011;9122;48.406;9.984;2023-07-29T14:40:13;1.77;;;1.67;;
17993;SDS011;9122;48.406;9.984;2023-07-29T14:42:57;1.70;;;1.60;;
17993;SDS011;9122;48.406;9.984;2023-07-29T14:45:41;1.90;;;1.80;;
17993;SDS011;9122;48.406;9.984;2023-07-29T14:48:25;2.20;;;2.10;;
17993;SDS011;9122;48.406;9.984;2023-07-29T14:51:09;2.22;;;2.13;;
17993;SDS011;9122;48.406;9.984;2023-07-29T14:53:54;1.75;;;1.65;;
17993;SDS011;9122;48.406;9.984;2023-07-29T14:56:39;1.88;;;1.73;;
17993;SDS011;9122;48.406;9.984;2023-07-29T14:59:23;2.90;;;1.92;;
17993;SDS011;9122;48.406;9.984;2023-07-29T15:02:07;1.92;;;1.83;;
17993;SDS011;9122;48.406;9.984;2023-07-29T15:04:51;1.55;;;1.45;;
17993;SDS011;9122;48.406;9.984;2023-07-29T15:07:35;1.60;;;1.50;;
17993;SDS011;9122;48.406;9.984;2023-07-29T15:10:21;1.92;;;1.83;;
17993;SDS011;9122;48.406;9.984;2023-07-29T15:13:05;1.95;;;1.85;;
17993;SDS011;9122;48.406;9.984;2023-07-29T15:15:50;1.95;;;1.85;;
17993;SDS011;9122;48.406;9.984;2023-07-29T15:18:35;2.15;;;2.05;;
17993;SDS011;9122;48.406;9.984;2023-07-29T15:21:19;1.88;;;1.77;;
17993;SDS011;9122;48.406;9.984;2023-07-29T15:24:04;2.15;;;2.00;;
17993;SDS011;9122;48.406;9.984;2023-07-29T15:26:48;2.08;;;1.52;;
17993;SDS011;9122;48.406;9.984;2023-07-29T15:29:33;2.20;;;2.03;;
17993;SDS011;9122;48.406;9.984;2023-07-29T15:32:18;2.17;;;1.98;;
17993;SDS011;9122;48.406;9.984;2023-07-29T15:35:02;2.00;;;1.88;;
17993;SDS011;9122;48.406;9.984;2023-07-29T15:37:46;2.22;;;2.03;;
17993;SDS011;9122;48.406;9.984;2023-07-29T15:40:31;2.00;;;1.90;;
17993;SDS011;9122;48.406;9.984;2023-07-29T15:43:16;3.05;;;2.50;;
17993;SDS011;9122;48.406;9.984;2023-07-29T15:46:01;2.05;;;1.90;;
17993;SDS011;9122;48.406;9.984;2023-07-29T15:48:45;2.17;;;1.98;;
17993;SDS011;9122;48.406;9.984;2023-07-29T15:51:29;1.92;;;1.83;;
17993;SDS011;9122;48.406;9.984;2023-07-29T15:54:14;1.92;;;1.83;;
17993;SDS011;9122;48.406;9.984;2023-07-29T15:56:58;3.08;;;1.85;;
17993;SDS011;9122;48.406;9.984;2023-07-29T15:59:42;2.17;;;1.90;;
17993;SDS011;9122;48.406;9.984;2023-07-29T16:02:26;3.83;;;2.50;;
17993;SDS011;9122;48.406;9.984;2023-07-29T16:05:10;3.17;;;2.00;;
17993;SDS011;9122;48.406;9.984;2023-07-29T16:07:55;2.50;;;2.08;;
17993;SDS011;9122;48.406;9.984;2023-07-29T16:10:41;2.30;;;2.10;;
17993;SDS011;9122;48.406;9.984;2023-07-29T16:13:26;2.00;;;1.80;;
17993;SDS011;9122;48.406;9.984;2023-07-29T16:16:10;3.50;;;1.58;;
17993;SDS011;9122;48.406;9.984;2023-07-29T16:18:55;1.60;;;1.50;;
17993;SDS011;9122;48.406;9.984;2023-07-29T16:21:39;1.73;;;1.15;;
17993;SDS011;9122;48.406;9.984;2023-07-29T16:24:23;1.50;;;1.25;;
17993;SDS011;9122;48.406;9.984;2023-07-29T16:27:07;1.75;;;1.65;;
17993;SDS011;9122;48.406;9.984;2023-07-29T16:29:51;2.20;;;1.48;;
17993;SDS011;9122;48.406;9.984;2023-07-29T16:32:36;1.80;;;1.70;;
17993;SDS011;9122;48.406;9.984;2023-07-29T16:35:20;2.00;;;1.83;;
17993;SDS011;9122;48.406;9.984;2023-07-29T16:38:05;3.53;;;1.80;;
17993;SDS011;9122;48.406;9.984;2023-07-29T16:40:49;2.15;;;1.75;;
17993;SDS011;9122;48.406;9.984;2023-07-29T16:43:33;1.60;;;1.50;;
17993;SDS011;9122;48.406;9.984;2023-07-29T16:46:18;1.80;;;1.70;;
17993;SDS011;9122;48.406;9.984;2023-07-29T16:49:02;1.88;;;1.77;;
17993;SDS011;9122;48.406;9.984;2023-07-29T16:51:48;2.25;;;2.05;;
17993;SDS011;9122;48.406;9.984;2023-07-29T16:54:33;1.65;;;1.55;;
17993;SDS011;9122;48.406;9.984;2023-07-29T16:57:17;2.13;;;1.73;;